THY854 LTAL-LTFM
Flight info
| Callsign | THY854 |
|---|---|
| Flight time | 0h 53m |
| Altitude | 38000 |
| Route | INB UW702 GUMRU UT315 NUGBA |
| Aircraft | A319/M-SDE3FGHIRWY/LB1 |
Departure
| Time | 2026-05-05 20:27 |
|---|---|
| Airport | Kastamonu Airport (LTAL) |
Arrival
| Time | 2026-05-05 21:20 |
|---|---|
| Airport | İstanbul Airport (LTFM) |
| Time | Latitude | Longitude | Altitude | Speed | Heading |
|---|---|---|---|---|---|
| 2026-05-05 19:42 | 41.31732 | 33.79971 | 3468 ft | 0 kts | 59° |
| 2026-05-05 20:15 | 41.31721 | 33.79945 | 3469 ft | 3 kts | 59° |
| 2026-05-05 20:15 | 41.31703 | 33.79921 | 3471 ft | 3 kts | 20° |
| 2026-05-05 20:15 | 41.31679 | 33.79925 | 3471 ft | 3 kts | 328° |
| 2026-05-05 20:16 | 41.31672 | 33.79933 | 3471 ft | 0 kts | 311° |
| 2026-05-05 20:20 | 41.31686 | 33.79909 | 3472 ft | 4 kts | 301° |
| 2026-05-05 20:20 | 41.31701 | 33.79853 | 3475 ft | 7 kts | 279° |
| 2026-05-05 20:20 | 41.31707 | 33.79790 | 3477 ft | 9 kts | 277° |
| 2026-05-05 20:20 | 41.31713 | 33.79685 | 3479 ft | 12 kts | 257° |
| 2026-05-05 20:21 | 41.31612 | 33.79638 | 3481 ft | 18 kts | 185° |
| 2026-05-05 20:21 | 41.31478 | 33.79620 | 3485 ft | 22 kts | 186° |
| 2026-05-05 20:21 | 41.31335 | 33.79597 | 3489 ft | 22 kts | 189° |
| 2026-05-05 20:21 | 41.31147 | 33.79551 | 3497 ft | 22 kts | 210° |
| 2026-05-05 20:22 | 41.31040 | 33.79553 | 3499 ft | 12 kts | 187° |
| 2026-05-05 20:22 | 41.30921 | 33.79532 | 3503 ft | 19 kts | 187° |
| 2026-05-05 20:22 | 41.30790 | 33.79512 | 3509 ft | 20 kts | 187° |
| 2026-05-05 20:22 | 41.30661 | 33.79490 | 3513 ft | 18 kts | 187° |
| 2026-05-05 20:23 | 41.30552 | 33.79446 | 3517 ft | 15 kts | 212° |
| 2026-05-05 20:23 | 41.30488 | 33.79446 | 3519 ft | 9 kts | 63° |
| 2026-05-05 20:23 | 41.30520 | 33.79466 | 3517 ft | 0 kts | 5° |
| 2026-05-05 20:26 | 41.30540 | 33.79469 | 3517 ft | 21 kts | 5° |
| 2026-05-05 20:26 | 41.30956 | 33.79536 | 3502 ft | 96 kts | 6° |
| 2026-05-05 20:26 | 41.31843 | 33.79672 | 3478 ft | 157 kts | 6° |
| 2026-05-05 20:27 | 41.33042 | 33.79836 | 3883 ft | 174 kts | 7° |
| 2026-05-05 20:27 | 41.34125 | 33.80021 | 4847 ft | 152 kts | 10° |
| 2026-05-05 20:27 | 41.35137 | 33.80254 | 5551 ft | 147 kts | 12° |
| 2026-05-05 20:27 | 41.36129 | 33.80459 | 6048 ft | 148 kts | 357° |
| 2026-05-05 20:28 | 41.37133 | 33.80230 | 6536 ft | 148 kts | 346° |
| 2026-05-05 20:28 | 41.38130 | 33.79891 | 6955 ft | 153 kts | 348° |
| 2026-05-05 20:28 | 41.39223 | 33.79571 | 7266 ft | 167 kts | 350° |
| 2026-05-05 20:28 | 41.40422 | 33.79289 | 7591 ft | 183 kts | 352° |
| 2026-05-05 20:29 | 41.41729 | 33.79031 | 7932 ft | 199 kts | 353° |
| 2026-05-05 20:29 | 41.43164 | 33.78777 | 8298 ft | 216 kts | 354° |
| 2026-05-05 20:29 | 41.44721 | 33.78519 | 8593 ft | 239 kts | 354° |
| 2026-05-05 20:29 | 41.46440 | 33.78242 | 9041 ft | 257 kts | 354° |
| 2026-05-05 20:30 | 41.48255 | 33.77956 | 9494 ft | 275 kts | 354° |
| 2026-05-05 20:30 | 41.50200 | 33.77650 | 10065 ft | 288 kts | 354° |
| 2026-05-05 20:30 | 41.52214 | 33.77334 | 10686 ft | 299 kts | 354° |
| 2026-05-05 20:30 | 41.54333 | 33.77003 | 11109 ft | 317 kts | 354° |
| 2026-05-05 20:31 | 41.56582 | 33.76651 | 11600 ft | 331 kts | 354° |
| 2026-05-05 20:31 | 41.58887 | 33.76291 | 12339 ft | 336 kts | 354° |
| 2026-05-05 20:31 | 41.61204 | 33.75927 | 13140 ft | 338 kts | 354° |
| 2026-05-05 20:31 | 41.63538 | 33.75561 | 13914 ft | 341 kts | 354° |
| 2026-05-05 20:32 | 41.65902 | 33.75189 | 14666 ft | 343 kts | 354° |
| 2026-05-05 20:32 | 41.68269 | 33.74818 | 15357 ft | 346 kts | 354° |
| 2026-05-05 20:32 | 41.70648 | 33.74444 | 16028 ft | 349 kts | 354° |
| 2026-05-05 20:32 | 41.73067 | 33.74065 | 16703 ft | 351 kts | 354° |
| 2026-05-05 20:33 | 41.75503 | 33.73683 | 17358 ft | 354 kts | 355° |
| 2026-05-05 20:33 | 41.77937 | 33.73301 | 17988 ft | 357 kts | 355° |
| 2026-05-05 20:33 | 41.80416 | 33.72910 | 18595 ft | 361 kts | 355° |
| 2026-05-05 20:33 | 41.82913 | 33.72524 | 19236 ft | 363 kts | 355° |
| 2026-05-05 20:34 | 41.85433 | 33.72138 | 19854 ft | 366 kts | 355° |
| 2026-05-05 20:34 | 41.87937 | 33.71634 | 20511 ft | 368 kts | 347° |
| 2026-05-05 20:34 | 41.90268 | 33.70190 | 21136 ft | 375 kts | 328° |
| 2026-05-05 20:34 | 41.92149 | 33.67723 | 21768 ft | 382 kts | 309° |
| 2026-05-05 20:35 | 41.93320 | 33.64521 | 22348 ft | 392 kts | 290° |
| 2026-05-05 20:35 | 41.93628 | 33.60908 | 22877 ft | 403 kts | 270° |
| 2026-05-05 20:35 | 41.93151 | 33.57155 | 23408 ft | 409 kts | 262° |
| 2026-05-05 20:35 | 41.92538 | 33.53455 | 23861 ft | 413 kts | 262° |
| 2026-05-05 20:36 | 41.91907 | 33.49670 | 24325 ft | 416 kts | 262° |
| 2026-05-05 20:36 | 41.91283 | 33.45867 | 24790 ft | 419 kts | 263° |
| 2026-05-05 20:36 | 41.90668 | 33.42050 | 25216 ft | 422 kts | 263° |
| 2026-05-05 20:36 | 41.90052 | 33.38197 | 25693 ft | 424 kts | 263° |
| 2026-05-05 20:37 | 41.89440 | 33.34354 | 26141 ft | 426 kts | 262° |
| 2026-05-05 20:37 | 41.88820 | 33.30450 | 26561 ft | 429 kts | 263° |
| 2026-05-05 20:37 | 41.88197 | 33.26535 | 26993 ft | 432 kts | 263° |
| 2026-05-05 20:37 | 41.87572 | 33.22603 | 27409 ft | 434 kts | 263° |
| 2026-05-05 20:38 | 41.86939 | 33.18637 | 27805 ft | 437 kts | 263° |
| 2026-05-05 20:38 | 41.86305 | 33.14687 | 28178 ft | 440 kts | 263° |
| 2026-05-05 20:38 | 41.85654 | 33.10634 | 28593 ft | 443 kts | 263° |
| 2026-05-05 20:38 | 41.85012 | 33.06652 | 28967 ft | 445 kts | 263° |
| 2026-05-05 20:39 | 41.84352 | 33.02568 | 29345 ft | 448 kts | 263° |
| 2026-05-05 20:39 | 41.83691 | 32.98488 | 29718 ft | 450 kts | 263° |
| 2026-05-05 20:39 | 41.83030 | 32.94414 | 30074 ft | 453 kts | 263° |
| 2026-05-05 20:39 | 41.82358 | 32.90290 | 30453 ft | 454 kts | 263° |
| 2026-05-05 20:40 | 41.81688 | 32.86182 | 30844 ft | 455 kts | 263° |
| 2026-05-05 20:40 | 41.81009 | 32.82032 | 31277 ft | 453 kts | 263° |
| 2026-05-05 20:40 | 41.80341 | 32.77959 | 31684 ft | 452 kts | 263° |
| 2026-05-05 20:40 | 41.79666 | 32.73855 | 32059 ft | 452 kts | 263° |
| 2026-05-05 20:41 | 41.78992 | 32.69756 | 32434 ft | 451 kts | 263° |
| 2026-05-05 20:41 | 41.78317 | 32.65671 | 32817 ft | 450 kts | 263° |
| 2026-05-05 20:41 | 41.77645 | 32.61608 | 33178 ft | 450 kts | 263° |
| 2026-05-05 20:41 | 41.76971 | 32.57545 | 33540 ft | 449 kts | 263° |
| 2026-05-05 20:42 | 41.76291 | 32.53451 | 33889 ft | 448 kts | 263° |
| 2026-05-05 20:42 | 41.75614 | 32.49402 | 34203 ft | 448 kts | 263° |
| 2026-05-05 20:42 | 41.74939 | 32.45352 | 34516 ft | 447 kts | 263° |
| 2026-05-05 20:42 | 41.74266 | 32.41322 | 34842 ft | 446 kts | 263° |
| 2026-05-05 20:43 | 41.73592 | 32.37299 | 35144 ft | 445 kts | 263° |
| 2026-05-05 20:43 | 41.72915 | 32.33268 | 35448 ft | 444 kts | 262° |
| 2026-05-05 20:43 | 41.72237 | 32.29247 | 35737 ft | 443 kts | 261° |
| 2026-05-05 20:43 | 41.71532 | 32.25243 | 35979 ft | 442 kts | 261° |
| 2026-05-05 20:44 | 41.70813 | 32.21275 | 35774 ft | 435 kts | 261° |
| 2026-05-05 20:44 | 41.70100 | 32.17369 | 35350 ft | 433 kts | 261° |
| 2026-05-05 20:44 | 41.69400 | 32.13518 | 35193 ft | 433 kts | 261° |
| 2026-05-05 20:44 | 41.68688 | 32.09595 | 35032 ft | 434 kts | 261° |
| 2026-05-05 20:45 | 41.67266 | 32.01762 | 34757 ft | 434 kts | 262° |
| 2026-05-05 20:45 | 41.66550 | 31.97826 | 34569 ft | 434 kts | 262° |
| 2026-05-05 20:45 | 41.65836 | 31.93912 | 34346 ft | 434 kts | 262° |
| 2026-05-05 20:46 | 41.65126 | 31.90022 | 34099 ft | 434 kts | 262° |
| 2026-05-05 20:46 | 41.64407 | 31.86096 | 33851 ft | 434 kts | 262° |
| 2026-05-05 20:46 | 41.63698 | 31.82236 | 33607 ft | 435 kts | 262° |
| 2026-05-05 20:46 | 41.62978 | 31.78323 | 33358 ft | 435 kts | 261° |
| 2026-05-05 20:47 | 41.62254 | 31.74395 | 33107 ft | 436 kts | 261° |
| 2026-05-05 20:47 | 41.61533 | 31.70494 | 32861 ft | 436 kts | 261° |
| 2026-05-05 20:47 | 41.60799 | 31.66532 | 32615 ft | 437 kts | 261° |
| 2026-05-05 20:47 | 41.60075 | 31.62630 | 32366 ft | 437 kts | 261° |
| 2026-05-05 20:48 | 41.59347 | 31.58711 | 32116 ft | 437 kts | 261° |
| 2026-05-05 20:48 | 41.58615 | 31.54791 | 31870 ft | 438 kts | 261° |
| 2026-05-05 20:48 | 41.57874 | 31.50828 | 31614 ft | 438 kts | 261° |
| 2026-05-05 20:48 | 41.57144 | 31.46924 | 31369 ft | 439 kts | 261° |
| 2026-05-05 20:49 | 41.56444 | 31.42966 | 31117 ft | 438 kts | 263° |
| 2026-05-05 20:49 | 41.55910 | 31.38965 | 30870 ft | 436 kts | 267° |
| 2026-05-05 20:49 | 41.55566 | 31.34959 | 30616 ft | 434 kts | 270° |
| 2026-05-05 20:49 | 41.55410 | 31.30974 | 30354 ft | 433 kts | 274° |
| 2026-05-05 20:50 | 41.55439 | 31.26969 | 30082 ft | 431 kts | 277° |
| 2026-05-05 20:50 | 41.55639 | 31.22990 | 29813 ft | 430 kts | 279° |
| 2026-05-05 20:50 | 41.55896 | 31.19023 | 29541 ft | 431 kts | 279° |
| 2026-05-05 20:50 | 41.56159 | 31.15048 | 29273 ft | 432 kts | 279° |
| 2026-05-05 20:51 | 41.56417 | 31.11116 | 29008 ft | 432 kts | 279° |
| 2026-05-05 20:51 | 41.56673 | 31.07140 | 28742 ft | 431 kts | 279° |
| 2026-05-05 20:51 | 41.56927 | 31.03153 | 28468 ft | 429 kts | 279° |
| 2026-05-05 20:51 | 41.57177 | 30.99212 | 28200 ft | 428 kts | 279° |
| 2026-05-05 20:52 | 41.57423 | 30.95255 | 27932 ft | 426 kts | 279° |
| 2026-05-05 20:52 | 41.57667 | 30.91324 | 27667 ft | 425 kts | 279° |
| 2026-05-05 20:52 | 41.57908 | 30.87429 | 27398 ft | 423 kts | 278° |
| 2026-05-05 20:52 | 41.58148 | 30.83522 | 27132 ft | 422 kts | 279° |
| 2026-05-05 20:53 | 41.58384 | 30.79654 | 26866 ft | 420 kts | 278° |
| 2026-05-05 20:53 | 41.58619 | 30.75752 | 26597 ft | 419 kts | 278° |
| 2026-05-05 20:53 | 41.58850 | 30.71911 | 26333 ft | 417 kts | 278° |
| 2026-05-05 20:53 | 41.59081 | 30.68072 | 26066 ft | 415 kts | 278° |
| 2026-05-05 20:54 | 41.59272 | 30.64267 | 25802 ft | 415 kts | 277° |
| 2026-05-05 20:54 | 41.59417 | 30.60448 | 25534 ft | 413 kts | 276° |
| 2026-05-05 20:54 | 41.59551 | 30.56605 | 25268 ft | 412 kts | 276° |
| 2026-05-05 20:54 | 41.59684 | 30.52830 | 25004 ft | 411 kts | 276° |
| 2026-05-05 20:55 | 41.59737 | 30.49017 | 24714 ft | 412 kts | 268° |
| 2026-05-05 20:55 | 41.58950 | 30.45325 | 24403 ft | 418 kts | 246° |
| 2026-05-05 20:55 | 41.57462 | 30.42002 | 24050 ft | 419 kts | 240° |
| 2026-05-05 20:55 | 41.55868 | 30.38796 | 23637 ft | 416 kts | 239° |
| 2026-05-05 20:56 | 41.54288 | 30.35600 | 23208 ft | 413 kts | 240° |
| 2026-05-05 20:56 | 41.52725 | 30.32358 | 22766 ft | 410 kts | 240° |
| 2026-05-05 20:56 | 41.51236 | 30.29200 | 22350 ft | 406 kts | 240° |
| 2026-05-05 20:56 | 41.49746 | 30.26000 | 21933 ft | 402 kts | 240° |
| 2026-05-05 20:57 | 41.48297 | 30.22869 | 21515 ft | 399 kts | 241° |
| 2026-05-05 20:57 | 41.46841 | 30.19715 | 21101 ft | 396 kts | 241° |
| 2026-05-05 20:57 | 41.45406 | 30.16601 | 20685 ft | 393 kts | 241° |
| 2026-05-05 20:57 | 41.43990 | 30.13527 | 20270 ft | 391 kts | 241° |
| 2026-05-05 20:58 | 41.42572 | 30.10453 | 19845 ft | 388 kts | 241° |
| 2026-05-05 20:58 | 41.41172 | 30.07420 | 19421 ft | 386 kts | 241° |
| 2026-05-05 20:58 | 41.39780 | 30.04404 | 19001 ft | 384 kts | 241° |
| 2026-05-05 20:58 | 41.38368 | 30.01351 | 18570 ft | 382 kts | 241° |
| 2026-05-05 20:59 | 41.36992 | 29.98375 | 18163 ft | 380 kts | 241° |
| 2026-05-05 20:59 | 41.35611 | 29.95391 | 17749 ft | 378 kts | 241° |
| 2026-05-05 20:59 | 41.34228 | 29.92407 | 17320 ft | 377 kts | 241° |
| 2026-05-05 20:59 | 41.32869 | 29.89477 | 16897 ft | 375 kts | 241° |
| 2026-05-05 21:00 | 41.31506 | 29.86540 | 16483 ft | 373 kts | 241° |
| 2026-05-05 21:00 | 41.30152 | 29.83627 | 16050 ft | 372 kts | 241° |
| 2026-05-05 21:00 | 41.28791 | 29.80703 | 15619 ft | 371 kts | 241° |
| 2026-05-05 21:00 | 41.27447 | 29.77816 | 15178 ft | 370 kts | 241° |
| 2026-05-05 21:01 | 41.26091 | 29.74908 | 14730 ft | 369 kts | 240° |
| 2026-05-05 21:01 | 41.24745 | 29.72024 | 14296 ft | 367 kts | 241° |
| 2026-05-05 21:01 | 41.23405 | 29.69159 | 13854 ft | 366 kts | 241° |
| 2026-05-05 21:01 | 41.22068 | 29.66302 | 13414 ft | 365 kts | 241° |
| 2026-05-05 21:02 | 41.20731 | 29.63445 | 12971 ft | 364 kts | 241° |
| 2026-05-05 21:02 | 41.19397 | 29.60599 | 12531 ft | 362 kts | 241° |
| 2026-05-05 21:02 | 41.18079 | 29.57785 | 12106 ft | 360 kts | 241° |
| 2026-05-05 21:02 | 41.16759 | 29.54973 | 11688 ft | 358 kts | 241° |
| 2026-05-05 21:03 | 41.15446 | 29.52175 | 11269 ft | 356 kts | 241° |
| 2026-05-05 21:03 | 41.14159 | 29.49437 | 10858 ft | 354 kts | 240° |
| 2026-05-05 21:03 | 41.12854 | 29.46664 | 10433 ft | 352 kts | 241° |
| 2026-05-05 21:03 | 41.11562 | 29.43923 | 10222 ft | 343 kts | 241° |
| 2026-05-05 21:04 | 41.10321 | 29.41296 | 10142 ft | 330 kts | 241° |
| 2026-05-05 21:04 | 41.09134 | 29.38784 | 10070 ft | 318 kts | 241° |
| 2026-05-05 21:04 | 41.07968 | 29.36315 | 9815 ft | 312 kts | 241° |
| 2026-05-05 21:04 | 41.06832 | 29.33904 | 9571 ft | 308 kts | 240° |
| 2026-05-05 21:05 | 41.05701 | 29.31499 | 9308 ft | 303 kts | 240° |
| 2026-05-05 21:05 | 41.04602 | 29.29162 | 9047 ft | 299 kts | 240° |
| 2026-05-05 21:05 | 41.03498 | 29.26822 | 8795 ft | 295 kts | 240° |
| 2026-05-05 21:05 | 41.02425 | 29.24554 | 8545 ft | 291 kts | 240° |
| 2026-05-05 21:06 | 41.01350 | 29.22286 | 8247 ft | 289 kts | 240° |
| 2026-05-05 21:06 | 41.00286 | 29.20043 | 7947 ft | 287 kts | 240° |
| 2026-05-05 21:06 | 40.99221 | 29.17803 | 7653 ft | 285 kts | 240° |
| 2026-05-05 21:06 | 40.98181 | 29.15614 | 7356 ft | 284 kts | 239° |
| 2026-05-05 21:07 | 40.97128 | 29.13404 | 7062 ft | 282 kts | 239° |
| 2026-05-05 21:07 | 40.96083 | 29.11210 | 6764 ft | 280 kts | 239° |
| 2026-05-05 21:07 | 40.95054 | 29.09053 | 6470 ft | 279 kts | 239° |
| 2026-05-05 21:07 | 40.94025 | 29.06899 | 6169 ft | 277 kts | 239° |
| 2026-05-05 21:08 | 40.92999 | 29.04748 | 5897 ft | 275 kts | 239° |
| 2026-05-05 21:08 | 40.91988 | 29.02632 | 5698 ft | 270 kts | 240° |
| 2026-05-05 21:08 | 40.91278 | 29.00387 | 5482 ft | 260 kts | 265° |
| 2026-05-05 21:08 | 40.91350 | 28.98075 | 5301 ft | 251 kts | 279° |
| 2026-05-05 21:09 | 40.91577 | 28.95798 | 5092 ft | 247 kts | 280° |
| 2026-05-05 21:09 | 40.91798 | 28.93576 | 4885 ft | 243 kts | 280° |
| 2026-05-05 21:09 | 40.92008 | 28.91359 | 4679 ft | 240 kts | 280° |
| 2026-05-05 21:09 | 40.92205 | 28.89182 | 4479 ft | 236 kts | 280° |
| 2026-05-05 21:10 | 40.92395 | 28.87051 | 4277 ft | 233 kts | 280° |
| 2026-05-05 21:10 | 40.92581 | 28.84929 | 4124 ft | 231 kts | 280° |
| 2026-05-05 21:10 | 40.92767 | 28.82804 | 4068 ft | 232 kts | 280° |
| 2026-05-05 21:10 | 40.92968 | 28.80691 | 4042 ft | 230 kts | 285° |
| 2026-05-05 21:11 | 40.93670 | 28.78937 | 3984 ft | 213 kts | 324° |
| 2026-05-05 21:11 | 40.94900 | 28.77952 | 3992 ft | 198 kts | 334° |
| 2026-05-05 21:11 | 40.96077 | 28.77109 | 3979 ft | 187 kts | 333° |
| 2026-05-05 21:11 | 40.97163 | 28.76329 | 4035 ft | 168 kts | 339° |
| 2026-05-05 21:12 | 40.98259 | 28.76112 | 3980 ft | 151 kts | 0° |
| 2026-05-05 21:12 | 40.99275 | 28.76118 | 3993 ft | 145 kts | 1° |
| 2026-05-05 21:12 | 41.00291 | 28.76126 | 3987 ft | 144 kts | 1° |
| 2026-05-05 21:12 | 41.01292 | 28.76125 | 3984 ft | 144 kts | 0° |
| 2026-05-05 21:13 | 41.02287 | 28.76116 | 3988 ft | 143 kts | 0° |
| 2026-05-05 21:13 | 41.03280 | 28.76102 | 3986 ft | 142 kts | 0° |
| 2026-05-05 21:13 | 41.04268 | 28.76086 | 3979 ft | 137 kts | 0° |
| 2026-05-05 21:13 | 41.05209 | 28.76069 | 3975 ft | 132 kts | 0° |
| 2026-05-05 21:14 | 41.06131 | 28.76053 | 3982 ft | 132 kts | 0° |
| 2026-05-05 21:14 | 41.07050 | 28.76038 | 3983 ft | 133 kts | 0° |
| 2026-05-05 21:14 | 41.07985 | 28.76022 | 3863 ft | 133 kts | 0° |
| 2026-05-05 21:14 | 41.08915 | 28.76006 | 3709 ft | 134 kts | 360° |
| 2026-05-05 21:15 | 41.09838 | 28.75989 | 3532 ft | 133 kts | 0° |
| 2026-05-05 21:15 | 41.10763 | 28.75971 | 3353 ft | 132 kts | 360° |
| 2026-05-05 21:15 | 41.11683 | 28.75952 | 3177 ft | 132 kts | 0° |
| 2026-05-05 21:15 | 41.12547 | 28.75934 | 3010 ft | 131 kts | 0° |
| 2026-05-05 21:16 | 41.13489 | 28.75916 | 2830 ft | 131 kts | 360° |
| 2026-05-05 21:16 | 41.14408 | 28.75897 | 2652 ft | 131 kts | 360° |
| 2026-05-05 21:16 | 41.15330 | 28.75879 | 2474 ft | 132 kts | 360° |
| 2026-05-05 21:16 | 41.16236 | 28.75862 | 2300 ft | 132 kts | 0° |
| 2026-05-05 21:17 | 41.17169 | 28.75844 | 2122 ft | 133 kts | 360° |
| 2026-05-05 21:17 | 41.18097 | 28.75826 | 1943 ft | 133 kts | 0° |
| 2026-05-05 21:17 | 41.19033 | 28.75808 | 1762 ft | 133 kts | 360° |
| 2026-05-05 21:17 | 41.19958 | 28.75790 | 1585 ft | 134 kts | 0° |
| 2026-05-05 21:18 | 41.20892 | 28.75772 | 1404 ft | 134 kts | 359° |
| 2026-05-05 21:18 | 41.21831 | 28.75753 | 1223 ft | 134 kts | 360° |
| 2026-05-05 21:18 | 41.22755 | 28.75736 | 1044 ft | 134 kts | 360° |
| 2026-05-05 21:18 | 41.23683 | 28.75719 | 863 ft | 135 kts | 359° |
| 2026-05-05 21:19 | 41.24625 | 28.75700 | 664 ft | 135 kts | 0° |
| 2026-05-05 21:19 | 41.25570 | 28.75685 | 485 ft | 135 kts | 358° |
| 2026-05-05 21:19 | 41.26505 | 28.75666 | 335 ft | 132 kts | 359° |
| 2026-05-05 21:19 | 41.27262 | 28.75649 | 334 ft | 83 kts | 359° |
| 2026-05-05 21:20 | 41.27695 | 28.75636 | 334 ft | 52 kts | 359° |
| 2026-05-05 21:20 | 41.27954 | 28.75623 | 334 ft | 20 kts | 341° |
| 2026-05-05 21:20 | 41.28072 | 28.75556 | 334 ft | 13 kts | 334° |
| 2026-05-05 21:21 | 41.28143 | 28.75494 | 334 ft | 0 kts | 310° |
| 2026-05-05 21:22 | 41.28167 | 28.75419 | 334 ft | 14 kts | 269° |
| 2026-05-05 21:22 | 41.28093 | 28.75350 | 334 ft | 14 kts | 183° |
| 2026-05-05 21:22 | 41.27982 | 28.75354 | 334 ft | 16 kts | 178° |
| 2026-05-05 21:22 | 41.27862 | 28.75356 | 334 ft | 18 kts | 180° |
| 2026-05-05 21:23 | 41.27743 | 28.75357 | 334 ft | 15 kts | 179° |
| 2026-05-05 21:23 | 41.27637 | 28.75359 | 334 ft | 15 kts | 179° |
| 2026-05-05 21:23 | 41.27524 | 28.75361 | 334 ft | 16 kts | 179° |
| 2026-05-05 21:23 | 41.27406 | 28.75363 | 334 ft | 17 kts | 179° |
| 2026-05-05 21:24 | 41.27284 | 28.75366 | 334 ft | 17 kts | 179° |
| 2026-05-05 21:24 | 41.27157 | 28.75367 | 334 ft | 18 kts | 179° |
| 2026-05-05 21:24 | 41.27062 | 28.75331 | 334 ft | 14 kts | 243° |
| 2026-05-05 21:24 | 41.27053 | 28.75199 | 334 ft | 14 kts | 267° |
| 2026-05-05 21:25 | 41.26966 | 28.75146 | 334 ft | 22 kts | 175° |
| 2026-05-05 21:25 | 41.26812 | 28.75150 | 334 ft | 19 kts | 181° |
| 2026-05-05 21:25 | 41.26678 | 28.75152 | 334 ft | 19 kts | 179° |
| 2026-05-05 21:25 | 41.26548 | 28.75114 | 334 ft | 19 kts | 196° |
| 2026-05-05 21:26 | 41.26427 | 28.75064 | 334 ft | 18 kts | 198° |
| 2026-05-05 21:26 | 41.26302 | 28.75013 | 334 ft | 17 kts | 197° |
| 2026-05-05 21:26 | 41.26191 | 28.74984 | 334 ft | 16 kts | 174° |
| 2026-05-05 21:26 | 41.26080 | 28.75031 | 334 ft | 17 kts | 160° |
| 2026-05-05 21:27 | 41.25966 | 28.75082 | 334 ft | 15 kts | 161° |
| 2026-05-05 21:27 | 41.25882 | 28.75119 | 334 ft | 5 kts | 163° |
| 2026-05-05 21:27 | 41.25835 | 28.75135 | 334 ft | 8 kts | 186° |
| 2026-05-05 21:27 | 41.25814 | 28.75086 | 334 ft | 4 kts | 253° |
| 2026-05-05 21:28 | 41.25802 | 28.75055 | 334 ft | 2 kts | 245° |
| 2026-05-05 21:28 | 41.25800 | 28.75048 | 334 ft | 0 kts | 246° |